Brighton — 2ANQ9 — position and weather

sailwx.info

Track history (hours):
 
Tides and Currents Weather Stations Pressure Air Temp Water Temp Dewpoint Dewpoint Depression Visibility Wind Speed Wind Dir Waves Ship Positions

Brighton

Last reported at 2017-Nov-18 00:57 UTC. Time now 2017-Nov-24 11:22 UTC.
Position N 34°50' E 140°04'.

Length 293 m; draft 12.4 m.

Type: Cargo ship. MMSI: 235061354.

Date/timePositionNaut miles runAvg speedWind from/ knotsBaromVisibWave heightAir tempDewpointWater temp
2017-Nov-18 00:57N 34°50' E 140°04'818.8
2017-Nov-18 00:30N 34°47' E 139°55'  
2017-Nov-15 06:40N 22°52' E 119°55'520.2
2017-Nov-15 06:25N 22°47' E 119°57'820.0
2017-Nov-15 06:01N 22°40' E 120°01'1019.5
2017-Nov-15 05:31N 22°33' E 120°08'815.5
2017-Nov-15 05:00N 22°33' E 120°17'2 4.6
2017-Nov-15 04:30N 22°33' E 120°19'1 2.1
2017-Nov-15 04:00N 22°34' E 120°19'0 0.0
2017-Nov-15 03:26N 22°34' E 120°19'0 0.0
2017-Nov-15 03:00N 22°34' E 120°19'0 0.0
2017-Nov-15 02:30N 22°34' E 120°19'0 0.0
2017-Nov-15 02:00N 22°34' E 120°19'0 0.0
2017-Nov-15 01:29N 22°34' E 120°19'0 0.0
2017-Nov-15 00:59N 22°34' E 120°19'0 0.0
2017-Nov-15 00:29N 22°34' E 120°19'0 0.0
2017-Nov-15 00:00N 22°34' E 120°19'0 0.0
2017-Nov-14 23:23N 22°34' E 120°19'0 0.0
2017-Nov-14 23:00N 22°34' E 120°19'0 0.0
2017-Nov-14 22:30N 22°34' E 120°19'0 0.0
2017-Nov-14 22:00N 22°34' E 120°19'0 0.0
2017-Nov-14 21:30N 22°34' E 120°19'0 0.0
2017-Nov-14 21:00N 22°34' E 120°19'0 0.0
2017-Nov-14 20:30N 22°34' E 120°19'0 0.0
2017-Nov-14 20:00N 22°34' E 120°19'0 0.0
2017-Nov-14 19:27N 22°34' E 120°19'0 0.0
2017-Nov-14 19:00N 22°34' E 120°19'0 0.0
2017-Nov-14 18:30N 22°34' E 120°19'0 0.0
2017-Nov-14 18:00N 22°34' E 120°19'0 0.3
2017-Nov-14 17:30N 22°34' E 120°19'1 2.2
2017-Nov-14 17:00N 22°33' E 120°18'4 7.8
2017-Nov-14 16:30N 22°32' E 120°14'713.3
2017-Nov-14 16:00N 22°30' E 120°07'713.7
2017-Nov-14 15:30N 22°29' E 120°00'714.1
2017-Nov-14 15:00N 22°27' E 119°53'23816.9
2017-Nov-14 00:55N 22°14' E 115°36'1817.1
2017-Nov-13 23:53N 22°14' E 115°17'617.0
2017-Nov-13 23:30N 22°13' E 115°10'816.8
2017-Nov-13 23:00N 22°13' E 115°01'816.9
2017-Nov-13 22:30N 22°15' E 114°52'817.0
2017-Nov-13 22:00N 22°17' E 114°43'30 1.4
2017-Nov-13 00:36N 22°34' E 114°16'0 0.1
2017-Nov-13 00:29N 22°34' E 114°16'0 0.0
2017-Nov-13 00:00N 22°34' E 114°16'0 0.0
2017-Nov-12 23:26N 22°34' E 114°16'0 0.0
2017-Nov-12 23:00N 22°34' E 114°16'0 0.0
2017-Nov-12 22:30N 22°34' E 114°16'0 0.1
2017-Nov-12 22:00N 22°34' E 114°16'1 2.5
2017-Nov-12 21:30N 22°34' E 114°17'510.9
2017-Nov-12 21:01N 22°32' E 114°23'611.1
2017-Nov-12 20:30N 22°28' E 114°27'3 6.7
2017-Nov-12 20:00N 22°25' E 114°28'3 5.0
2017-Nov-12 19:30N 22°23' E 114°28'2 4.3
2017-Nov-12 19:01N 22°21' E 114°27'2 4.6
2017-Nov-12 18:30N 22°18' E 114°28'4 7.2
2017-Nov-12 18:00N 22°15' E 114°27'4 7.9
2017-Nov-12 17:30N 22°12' E 114°24'4 7.9
2017-Nov-12 17:00N 22°08' E 114°22'3 6.5
2017-Nov-12 16:31N 22°07' E 114°19'4 7.5
2017-Nov-12 15:59N 22°07' E 114°15'7 6.9
2017-Nov-12 15:02N 22°12' E 114°11'0 9.0
2017-Nov-12 15:00N 22°12' E 114°10'4 8.3
2017-Nov-12 14:30N 22°15' E 114°07'4 8.6
2017-Nov-12 14:00N 22°19' E 114°06'3 0.2
2017-Nov-11 21:10N 22°21' E 114°04'211.5
2017-Nov-11 21:00N 22°21' E 114°02'612.0
2017-Nov-11 20:30N 22°21' E 113°56'4 8.4
2017-Nov-11 20:00N 22°25' E 113°53'2 4.5
2017-Nov-11 19:31N 22°27' E 113°53'0 0.3
2017-Nov-11 19:00N 22°27' E 113°53'0 0.0
2017-Nov-11 18:30N 22°27' E 113°53'0 0.0
2017-Nov-11 18:00N 22°27' E 113°53'0 0.0
2017-Nov-11 17:30N 22°27' E 113°53'0 0.0
2017-Nov-11 17:00N 22°27' E 113°53'0 0.0
2017-Nov-11 16:30N 22°27' E 113°53'0 0.0
2017-Nov-11 16:00N 22°27' E 113°53'0 0.0
2017-Nov-11 15:30N 22°27' E 113°53'0 0.0
2017-Nov-11 15:00N 22°27' E 113°53'0 0.0
2017-Nov-11 14:30N 22°27' E 113°53'0 0.0
2017-Nov-11 14:00N 22°27' E 113°53'0 0.0
2017-Nov-11 13:30N 22°27' E 113°53'0 0.0
2017-Nov-11 13:00N 22°27' E 113°53'0 0.0
2017-Nov-11 12:30N 22°27' E 113°53'0 0.0
2017-Nov-11 12:00N 22°27' E 113°53'0 0.0
2017-Nov-11 11:30N 22°27' E 113°53'0 0.0
2017-Nov-11 11:00N 22°27' E 113°53'0 0.0
2017-Nov-11 10:30N 22°27' E 113°53'0 0.0
2017-Nov-11 10:00N 22°27' E 113°53'0 0.0
2017-Nov-11 09:30N 22°27' E 113°53'0 0.3
2017-Nov-11 09:00N 22°27' E 113°53'2 4.9
2017-Nov-11 08:30N 22°25' E 113°54'3 6.2
2017-Nov-11 08:00N 22°22' E 113°55'510.5
2017-Nov-11 07:30N 22°21' E 114°01'5 9.9
2017-Nov-11 07:00N 22°19' E 114°06'712.4
2017-Nov-11 06:28N 22°13' E 114°10'3 7.3
2017-Nov-11 06:00N 22°11' E 114°12'6 8.6
2017-Nov-11 05:17N 22°08' E 114°18'310.5
2017-Nov-11 05:00N 22°08' E 114°21'612.0
2017-Nov-11 04:30N 22°07' E 114°28'713.6
2017-Nov-11 04:00N 22°07' E 114°35'714.0
2017-Nov-11 03:31N 22°06' E 114°43'714.0
2017-Nov-11 03:01N 22°06' E 114°50'714.1
2017-Nov-11 02:31N 22°05' E 114°58'814.0
2017-Nov-11 01:58N 22°06' E 115°06'1014.1
2017-Nov-11 01:17N 22°07' E 115°16'414.0
2017-Nov-11 01:00N 22°07' E 115°20'813.7
2017-Nov-11 00:24N 22°08' E 115°29'24213.6
2017-Nov-10 06:41N 22°30' E 119°50'419.0
2017-Nov-10 06:29N 22°30' E 119°54'1021.2
2017-Nov-10 06:00N 22°32' E 120°05'917.1
2017-Nov-10 05:30N 22°33' E 120°14'510.2
2017-Nov-10 05:00N 22°33' E 120°19'1 2.7
2017-Nov-10 04:29N 22°34' E 120°18'0 0.2
2017-Nov-10 04:00N 22°34' E 120°18'0 0.0
2017-Nov-10 03:30N 22°34' E 120°18'0 0.0
2017-Nov-10 03:00N 22°34' E 120°18'0 0.0
2017-Nov-10 02:19N 22°34' E 120°18'0 0.0
2017-Nov-10 02:00N 22°34' E 120°18'0 0.0
2017-Nov-10 01:30N 22°34' E 120°18'0 0.0
2017-Nov-10 00:59N 22°34' E 120°18'0 0.0
2017-Nov-10 00:30N 22°34' E 120°18'0 0.0
2017-Nov-09 23:18N 22°34' E 120°18'0 0.0
2017-Nov-09 23:00N 22°34' E 120°18'0 0.0
2017-Nov-09 22:20N 22°34' E 120°18'0 0.0
2017-Nov-09 21:58N 22°34' E 120°18'0 0.0
2017-Nov-09 21:30N 22°34' E 120°18'0 0.0
2017-Nov-09 20:29N 22°34' E 120°18'0 0.0
2017-Nov-09 19:53N 22°34' E 120°18'0 0.0
2017-Nov-09 19:14N 22°34' E 120°18'0 0.1
2017-Nov-09 18:56N 22°34' E 120°18'0 0.0
2017-Nov-09 18:25N 22°34' E 120°18'0 0.0
2017-Nov-09 18:00N 22°34' E 120°18'0 0.0
2017-Nov-09 17:30N 22°34' E 120°18'0 0.1
2017-Nov-09 17:00N 22°34' E 120°18'1 2.8
2017-Nov-09 16:30N 22°33' E 120°19'3 6.4
2017-Nov-09 16:00N 22°32' E 120°16'3 5.5
2017-Nov-09 15:30N 22°32' E 120°13'1 2.8
2017-Nov-09 15:00N 22°31' E 120°11'1 1.6
2017-Nov-09 14:30N 22°31' E 120°10'1 1.5
2017-Nov-09 13:59N 22°31' E 120°10'1 1.0
2017-Nov-09 13:30N 22°31' E 120°09'2 4.9
2017-Nov-09 13:00N 22°30' E 120°07'4 8.4
2017-Nov-09 12:30N 22°29' E 120°02'4 8.1
2017-Nov-09 12:00N 22°33' E 120°02'5 9.7
2017-Nov-09 11:30N 22°38' E 120°01'5 9.9
2017-Nov-09 11:00N 22°42' E 119°60'5 9.9
2017-Nov-09 10:30N 22°47' E 119°59'510.4
2017-Nov-09 10:00N 22°53' E 119°58'  
Track history (hours):
 
Tides and Currents Weather Stations Pressure Air Temp Water Temp Dewpoint Dewpoint Depression Visibility Wind Speed Wind Dir Waves Ship Positions

Brighton

Last reported at 2017-Nov-18 00:57 UTC. Time now 2017-Nov-24 11:22 UTC.
Position N 34°50' E 140°04'.

Length 293 m; draft 12.4 m.

Type: Cargo ship. MMSI: 235061354.

Date/timePositionNaut miles runAvg speedWind from/ knotsBaromVisibWave heightAir tempDewpointWater temp
2017-Nov-18 00:57N 34°50' E 140°04'818.8
2017-Nov-18 00:30N 34°47' E 139°55'  
2017-Nov-15 06:40N 22°52' E 119°55'520.2
2017-Nov-15 06:25N 22°47' E 119°57'820.0
2017-Nov-15 06:01N 22°40' E 120°01'1019.5
2017-Nov-15 05:31N 22°33' E 120°08'815.5
2017-Nov-15 05:00N 22°33' E 120°17'2 4.6
2017-Nov-15 04:30N 22°33' E 120°19'1 2.1
2017-Nov-15 04:00N 22°34' E 120°19'0 0.0
2017-Nov-15 03:26N 22°34' E 120°19'0 0.0
2017-Nov-15 03:00N 22°34' E 120°19'0 0.0
2017-Nov-15 02:30N 22°34' E 120°19'0 0.0
2017-Nov-15 02:00N 22°34' E 120°19'0 0.0
2017-Nov-15 01:29N 22°34' E 120°19'0 0.0
2017-Nov-15 00:59N 22°34' E 120°19'0 0.0
2017-Nov-15 00:29N 22°34' E 120°19'0 0.0
2017-Nov-15 00:00N 22°34' E 120°19'0 0.0
2017-Nov-14 23:23N 22°34' E 120°19'0 0.0
2017-Nov-14 23:00N 22°34' E 120°19'0 0.0
2017-Nov-14 22:30N 22°34' E 120°19'0 0.0
2017-Nov-14 22:00N 22°34' E 120°19'0 0.0
2017-Nov-14 21:30N 22°34' E 120°19'0 0.0
2017-Nov-14 21:00N 22°34' E 120°19'0 0.0
2017-Nov-14 20:30N 22°34' E 120°19'0 0.0
2017-Nov-14 20:00N 22°34' E 120°19'0 0.0
2017-Nov-14 19:27N 22°34' E 120°19'0 0.0
2017-Nov-14 19:00N 22°34' E 120°19'0 0.0
2017-Nov-14 18:30N 22°34' E 120°19'0 0.0
2017-Nov-14 18:00N 22°34' E 120°19'0 0.3
2017-Nov-14 17:30N 22°34' E 120°19'1 2.2
2017-Nov-14 17:00N 22°33' E 120°18'4 7.8
2017-Nov-14 16:30N 22°32' E 120°14'713.3
2017-Nov-14 16:00N 22°30' E 120°07'713.7
2017-Nov-14 15:30N 22°29' E 120°00'714.1
2017-Nov-14 15:00N 22°27' E 119°53'23816.9
2017-Nov-14 00:55N 22°14' E 115°36'1817.1
2017-Nov-13 23:53N 22°14' E 115°17'617.0
2017-Nov-13 23:30N 22°13' E 115°10'816.8
2017-Nov-13 23:00N 22°13' E 115°01'816.9
2017-Nov-13 22:30N 22°15' E 114°52'817.0
2017-Nov-13 22:00N 22°17' E 114°43'30 1.4
2017-Nov-13 00:36N 22°34' E 114°16'0 0.1
2017-Nov-13 00:29N 22°34' E 114°16'0 0.0
2017-Nov-13 00:00N 22°34' E 114°16'0 0.0
2017-Nov-12 23:26N 22°34' E 114°16'0 0.0
2017-Nov-12 23:00N 22°34' E 114°16'0 0.0
2017-Nov-12 22:30N 22°34' E 114°16'0 0.1
2017-Nov-12 22:00N 22°34' E 114°16'1 2.5
2017-Nov-12 21:30N 22°34' E 114°17'510.9
2017-Nov-12 21:01N 22°32' E 114°23'611.1
2017-Nov-12 20:30N 22°28' E 114°27'3 6.7
2017-Nov-12 20:00N 22°25' E 114°28'3 5.0
2017-Nov-12 19:30N 22°23' E 114°28'2 4.3
2017-Nov-12 19:01N 22°21' E 114°27'2 4.6
2017-Nov-12 18:30N 22°18' E 114°28'4 7.2
2017-Nov-12 18:00N 22°15' E 114°27'4 7.9
2017-Nov-12 17:30N 22°12' E 114°24'4 7.9
2017-Nov-12 17:00N 22°08' E 114°22'3 6.5
2017-Nov-12 16:31N 22°07' E 114°19'4 7.5
2017-Nov-12 15:59N 22°07' E 114°15'7 6.9
2017-Nov-12 15:02N 22°12' E 114°11'0 9.0
2017-Nov-12 15:00N 22°12' E 114°10'4 8.3
2017-Nov-12 14:30N 22°15' E 114°07'4 8.6
2017-Nov-12 14:00N 22°19' E 114°06'3 0.2
2017-Nov-11 21:10N 22°21' E 114°04'211.5
2017-Nov-11 21:00N 22°21' E 114°02'612.0
2017-Nov-11 20:30N 22°21' E 113°56'4 8.4
2017-Nov-11 20:00N 22°25' E 113°53'2 4.5
2017-Nov-11 19:31N 22°27' E 113°53'0 0.3
2017-Nov-11 19:00N 22°27' E 113°53'0 0.0
2017-Nov-11 18:30N 22°27' E 113°53'0 0.0
2017-Nov-11 18:00N 22°27' E 113°53'0 0.0
2017-Nov-11 17:30N 22°27' E 113°53'0 0.0
2017-Nov-11 17:00N 22°27' E 113°53'0 0.0
2017-Nov-11 16:30N 22°27' E 113°53'0 0.0
2017-Nov-11 16:00N 22°27' E 113°53'0 0.0
2017-Nov-11 15:30N 22°27' E 113°53'0 0.0
2017-Nov-11 15:00N 22°27' E 113°53'0 0.0
2017-Nov-11 14:30N 22°27' E 113°53'0 0.0
2017-Nov-11 14:00N 22°27' E 113°53'0 0.0
2017-Nov-11 13:30N 22°27' E 113°53'0 0.0
2017-Nov-11 13:00N 22°27' E 113°53'0 0.0
2017-Nov-11 12:30N 22°27' E 113°53'0 0.0
2017-Nov-11 12:00N 22°27' E 113°53'0 0.0
2017-Nov-11 11:30N 22°27' E 113°53'0 0.0
2017-Nov-11 11:00N 22°27' E 113°53'0 0.0
2017-Nov-11 10:30N 22°27' E 113°53'0 0.0
2017-Nov-11 10:00N 22°27' E 113°53'0 0.0
2017-Nov-11 09:30N 22°27' E 113°53'0 0.3
2017-Nov-11 09:00N 22°27' E 113°53'2 4.9
2017-Nov-11 08:30N 22°25' E 113°54'3 6.2
2017-Nov-11 08:00N 22°22' E 113°55'510.5
2017-Nov-11 07:30N 22°21' E 114°01'5 9.9
2017-Nov-11 07:00N 22°19' E 114°06'712.4
2017-Nov-11 06:28N 22°13' E 114°10'3 7.3
2017-Nov-11 06:00N 22°11' E 114°12'6 8.6
2017-Nov-11 05:17N 22°08' E 114°18'310.5
2017-Nov-11 05:00N 22°08' E 114°21'612.0
2017-Nov-11 04:30N 22°07' E 114°28'713.6
2017-Nov-11 04:00N 22°07' E 114°35'714.0
2017-Nov-11 03:31N 22°06' E 114°43'714.0
2017-Nov-11 03:01N 22°06' E 114°50'714.1
2017-Nov-11 02:31N 22°05' E 114°58'814.0
2017-Nov-11 01:58N 22°06' E 115°06'1014.1
2017-Nov-11 01:17N 22°07' E 115°16'414.0
2017-Nov-11 01:00N 22°07' E 115°20'813.7
2017-Nov-11 00:24N 22°08' E 115°29'24213.6
2017-Nov-10 06:41N 22°30' E 119°50'419.0
2017-Nov-10 06:29N 22°30' E 119°54'1021.2
2017-Nov-10 06:00N 22°32' E 120°05'917.1
2017-Nov-10 05:30N 22°33' E 120°14'510.2
2017-Nov-10 05:00N 22°33' E 120°19'1 2.7
2017-Nov-10 04:29N 22°34' E 120°18'0 0.2
2017-Nov-10 04:00N 22°34' E 120°18'0 0.0
2017-Nov-10 03:30N 22°34' E 120°18'0 0.0
2017-Nov-10 03:00N 22°34' E 120°18'0 0.0
2017-Nov-10 02:19N 22°34' E 120°18'0 0.0
2017-Nov-10 02:00N 22°34' E 120°18'0 0.0
2017-Nov-10 01:30N 22°34' E 120°18'0 0.0
2017-Nov-10 00:59N 22°34' E 120°18'0 0.0
2017-Nov-10 00:30N 22°34' E 120°18'0 0.0
2017-Nov-09 23:18N 22°34' E 120°18'0 0.0
2017-Nov-09 23:00N 22°34' E 120°18'0 0.0
2017-Nov-09 22:20N 22°34' E 120°18'0 0.0
2017-Nov-09 21:58N 22°34' E 120°18'0 0.0
2017-Nov-09 21:30N 22°34' E 120°18'0 0.0
2017-Nov-09 20:29N 22°34' E 120°18'0 0.0
2017-Nov-09 19:53N 22°34' E 120°18'0 0.0
2017-Nov-09 19:14N 22°34' E 120°18'0 0.1
2017-Nov-09 18:56N 22°34' E 120°18'0 0.0
2017-Nov-09 18:25N 22°34' E 120°18'0 0.0
2017-Nov-09 18:00N 22°34' E 120°18'0 0.0
2017-Nov-09 17:30N 22°34' E 120°18'0 0.1
2017-Nov-09 17:00N 22°34' E 120°18'1 2.8
2017-Nov-09 16:30N 22°33' E 120°19'3 6.4
2017-Nov-09 16:00N 22°32' E 120°16'3 5.5
2017-Nov-09 15:30N 22°32' E 120°13'1 2.8
2017-Nov-09 15:00N 22°31' E 120°11'1 1.6
2017-Nov-09 14:30N 22°31' E 120°10'1 1.5
2017-Nov-09 13:59N 22°31' E 120°10'1 1.0
2017-Nov-09 13:30N 22°31' E 120°09'2 4.9
2017-Nov-09 13:00N 22°30' E 120°07'4 8.4
2017-Nov-09 12:30N 22°29' E 120°02'4 8.1
2017-Nov-09 12:00N 22°33' E 120°02'5 9.7
2017-Nov-09 11:30N 22°38' E 120°01'5 9.9
2017-Nov-09 11:00N 22°42' E 119°60'5 9.9
2017-Nov-09 10:30N 22°47' E 119°59'510.4
2017-Nov-09 10:00N 22°53' E 119°58'  

Dump ship's entire track history